Time;durP1;ratioP1;P1;durP2;ratioP2;P2;SDS_P1;SDS_P2;PMS_P1;PMS_P2;Temp;Humidity;BMP_temperature;BMP_pressure;BME280_temperature;BME280_humidity;BME280_pressure;Samples;Min_cycle;Max_cycle;Signal;HPM_P1;HPM_P2
2022/09/13 00:01:40;;;;;;;5.25;3.97;;;;;;;-148.88;69.34;74735.34;5038605;28;20025;-81
2022/09/13 00:04:05;;;;;;;7.15;4.47;;;;;;;-148.88;69.23;74749.56;5037541;28;20037;-81
2022/09/13 00:06:31;;;;;;;7.53;4.40;;;;;;;-148.88;68.91;74749.56;5037684;28;20029;-81
2022/09/13 00:08:57;;;;;;;6.65;4.28;;;;;;;-148.88;68.86;74743.47;5037654;28;20484;-81
2022/09/13 00:11:25;;;;;;;8.65;4.03;;;;;;;-148.88;68.28;74737.38;5036036;28;20486;-81
2022/09/13 00:13:51;;;;;;;6.82;4.30;;;;;;;-148.88;68.11;74729.25;5037194;28;20053;-81
2022/09/13 00:16:18;;;;;;;7.13;5.18;;;;;;;-148.88;68.11;74721.13;5037410;28;20035;-81
2022/09/13 00:18:44;;;;;;;7.20;4.90;;;;;;;-148.88;67.86;74723.16;5037239;28;20029;-81
2022/09/13 00:21:13;;;;;;;6.72;4.18;;;;;;;-148.88;67.69;74713.00;5037338;28;20028;-81
2022/09/13 00:23:39;;;;;;;8.60;4.55;;;;;;;-148.88;67.45;74704.88;5037175;28;20033;-81
2022/09/13 00:26:07;;;;;;;7.85;4.50;;;;;;;-148.88;67.33;74696.78;5036280;28;20029;-80
2022/09/13 00:28:33;;;;;;;6.35;4.22;;;;;;;-148.88;67.42;74696.78;5036043;28;20383;-81
2022/09/13 00:31:00;;;;;;;6.30;4.22;;;;;;;-148.88;67.33;74700.84;5035652;28;20466;-81
2022/09/13 00:33:26;;;;;;;6.22;4.80;;;;;;;-148.88;67.17;74694.75;5035181;28;20029;-79
2022/09/13 00:35:51;;;;;;;6.68;4.80;;;;;;;-148.88;66.83;74684.59;5038782;28;20108;-82
2022/09/13 00:38:16;;;;;;;6.95;4.15;;;;;;;-148.88;66.34;74680.53;5039435;28;20033;-81
2022/09/13 00:40:41;;;;;;;7.18;4.63;;;;;;;-148.88;65.54;74652.09;5036179;28;20048;-81
2022/09/13 00:43:18;;;;;;;7.38;4.43;;;;;;;-148.88;64.88;74643.97;5035765;28;20120;-81
2022/09/13 00:45:45;;;;;;;7.63;4.55;;;;;;;-148.88;65.25;74652.09;5035673;28;20022;-80
2022/09/13 00:48:19;;;;;;;5.78;4.38;;;;;;;-148.88;65.10;74639.91;5036526;28;20029;-80
2022/09/13 00:50:50;;;;;;;6.93;4.50;;;;;;;-148.88;64.66;74633.81;5035218;28;20030;-81
2022/09/13 00:53:28;;;;;;;7.25;4.57;;;;;;;-148.88;65.03;74633.81;5039258;28;20030;-81
2022/09/13 00:55:59;;;;;;;6.13;4.63;;;;;;;-148.88;64.87;74633.81;5037350;28;20036;-81
2022/09/13 00:58:31;;;;;;;7.25;4.47;;;;;;;-148.88;65.18;74631.78;5037628;28;20509;-82
2022/09/13 01:00:58;;;;;;;5.32;4.07;;;;;;;-148.88;65.47;74623.66;5037089;28;20022;-81
2022/09/13 01:03:27;;;;;;;7.40;4.50;;;;;;;-148.88;65.25;74629.75;5036857;28;20394;-81
2022/09/13 01:06:06;;;;;;;6.80;4.55;;;;;;;-148.88;65.99;74629.75;5037353;28;20120;-82
2022/09/13 01:08:33;;;;;;;9.02;4.90;;;;;;;-148.88;65.28;74617.56;5036616;28;20459;-79
2022/09/13 01:11:00;;;;;;;6.35;4.03;;;;;;;-148.88;65.69;74619.59;5036273;28;20079;-81
2022/09/13 01:13:30;;;;;;;7.25;3.90;;;;;;;-148.88;66.38;74625.69;5038815;28;20029;-82
2022/09/13 01:15:55;;;;;;;6.35;4.22;;;;;;;-148.88;66.21;74623.66;5040799;28;20028;-82
2022/09/13 01:18:20;;;;;;;7.30;4.82;;;;;;;-148.88;66.48;74619.59;5042615;28;20033;-82
2022/09/13 01:21:38;;;;;;;8.82;4.78;;;;;;;-148.88;67.85;74621.63;5041310;28;20024;-81
2022/09/13 01:24:53;;;;;;;7.20;4.88;;;;;;;-148.88;68.36;74615.53;5001822;28;20067;-81
2022/09/13 01:28:02;;;;;;;7.25;4.55;;;;;;;-148.88;69.32;74621.63;5034239;28;20040;-81
2022/09/13 01:30:39;;;;;;;6.53;4.80;;;;;;;-148.88;69.99;74625.69;5029748;28;20029;-82
2022/09/13 01:33:20;;;;;;;7.57;4.30;;;;;;;-148.88;69.95;74627.72;5040322;28;20163;-81
2022/09/13 01:35:59;;;;;;;6.43;4.43;;;;;;;-148.88;70.41;74631.78;5038381;28;20025;-81
2022/09/13 01:38:49;;;;;;;5.45;4.10;;;;;;;-148.88;70.79;74639.91;5040010;28;20041;-81
2022/09/13 01:41:34;;;;;;;5.55;4.20;;;;;;;-148.88;70.00;74641.94;5038149;28;20040;-81
2022/09/13 01:44:11;;;;;;;7.63;4.50;;;;;;;-148.88;69.99;74643.97;5037716;28;20025;-81
2022/09/13 01:46:56;;;;;;;6.63;4.68;;;;;;;-148.88;70.78;74650.06;5036977;28;20025;-81
2022/09/13 01:49:27;;;;;;;6.07;4.60;;;;;;;-148.88;69.58;74650.06;5040128;28;20075;-82
2022/09/13 01:52:03;;;;;;;7.20;4.32;;;;;;;-148.88;69.14;74656.16;5041663;28;20053;-82
2022/09/13 01:54:36;;;;;;;5.78;4.18;;;;;;;-148.88;69.05;74652.09;5040423;28;20521;-81
2022/09/13 01:57:16;;;;;;;5.63;4.20;;;;;;;-148.88;69.66;74666.31;5040137;28;20386;-80
2022/09/13 01:59:48;;;;;;;6.60;4.80;;;;;;;-148.88;70.04;74662.25;5040343;28;20036;-82
2022/09/13 02:02:35;;;;;;;8.00;4.80;;;;;;;-148.88;70.50;74656.16;5040117;28;20029;-81
2022/09/13 02:05:09;;;;;;;7.15;4.88;;;;;;;-148.88;71.04;74658.19;5040307;28;20021;-82
2022/09/13 02:07:41;;;;;;;7.60;5.30;;;;;;;-148.88;71.75;74658.19;5038865;28;20104;-82
2022/09/13 02:10:15;;;;;;;6.38;4.90;;;;;;;-148.88;71.41;74660.22;5039480;28;20470;-82
2022/09/13 02:12:42;;;;;;;6.65;4.78;;;;;;;-148.88;71.46;74660.22;5040620;28;20033;-82
2022/09/13 02:15:16;;;;;;;6.43;4.93;;;;;;;-148.88;71.92;74668.34;5037723;28;20025;-82
2022/09/13 02:17:59;;;;;;;7.72;5.00;;;;;;;-148.88;72.26;74672.41;5038800;28;20033;-81
2022/09/13 02:20:32;;;;;;;6.50;5.10;;;;;;;-148.88;72.13;74676.47;5037446;28;20017;-81
2022/09/13 02:23:02;;;;;;;7.53;5.30;;;;;;;-148.88;72.62;74672.41;5036756;28;20036;-82
2022/09/13 02:25:31;;;;;;;6.80;4.55;;;;;;;-148.88;72.84;74672.41;5037576;28;20049;-81
2022/09/13 02:28:01;;;;;;;6.88;5.22;;;;;;;-148.88;75.43;74672.41;5039595;28;20417;-83
2022/09/13 02:30:35;;;;;;;6.47;4.72;;;;;;;-148.88;75.01;74680.53;5040140;28;20018;-83
2022/09/13 02:33:05;;;;;;;7.53;5.45;;;;;;;-148.88;75.72;74688.66;5041111;28;20052;-82
2022/09/13 02:35:49;;;;;;;9.50;5.78;;;;;;;-148.88;76.96;74684.59;5038354;28;20032;-81
2022/09/13 02:38:26;;;;;;;8.98;6.10;;;;;;;-148.88;78.46;74688.66;5038089;28;20056;-82
2022/09/13 02:41:01;;;;;;;9.45;5.25;;;;;;;-148.88;78.87;74692.72;5038457;28;20025;-83
2022/09/13 02:43:37;;;;;;;9.15;6.10;;;;;;;-148.88;79.44;74690.69;5039681;28;20030;-81
2022/09/13 02:46:13;;;;;;;8.38;5.30;;;;;;;-148.88;80.41;74694.75;5037385;28;20080;-82
2022/09/13 02:49:02;;;;;;;9.52;5.95;;;;;;;-148.88;81.16;74690.69;5039216;28;20053;-82
2022/09/13 02:51:49;;;;;;;8.02;5.65;;;;;;;-148.88;81.87;74692.72;5039090;28;20021;-82
2022/09/13 02:54:35;;;;;;;10.50;6.07;;;;;;;-148.88;82.49;74702.84;5037380;28;20463;-82
2022/09/13 02:57:20;;;;;;;8.52;5.93;;;;;;;-148.88;83.30;74704.88;5037029;28;20544;-82
2022/09/13 02:59:47;;;;;;;8.88;6.40;;;;;;;-148.88;83.02;74713.00;5037525;28;20037;-81
2022/09/13 03:09:04;;;;;;;8.23;6.38;;;;;;;-148.88;85.22;74737.38;5061320;28;20040;-83
2022/09/13 03:11:56;;;;;;;11.98;7.05;;;;;;;-148.88;89.46;74767.84;5060379;28;20021;-83
2022/09/13 03:14:42;;;;;;;7.65;5.68;;;;;;;-148.88;89.31;74753.63;5041264;28;20029;-82
2022/09/13 03:17:19;;;;;;;8.18;6.30;;;;;;;-148.88;89.38;74755.66;5040811;28;20402;-82
2022/09/13 03:19:57;;;;;;;8.55;5.82;;;;;;;-148.88;88.62;74763.78;5058870;28;20029;-82
2022/09/13 03:22:44;;;;;;;8.23;6.03;;;;;;;-148.88;87.71;74757.69;5059366;28;20025;-83
2022/09/13 03:25:12;;;;;;;8.35;5.75;;;;;;;-148.88;87.52;74753.63;5041327;28;20029;-83
2022/09/13 03:27:52;;;;;;;8.52;6.13;;;;;;;-148.88;87.67;74753.63;5040431;28;20067;-82
2022/09/13 03:30:18;;;;;;;10.35;6.18;;;;;;;-148.88;85.97;74755.66;5058169;28;20139;-82
2022/09/13 03:32:58;;;;;;;9.68;6.07;;;;;;;-148.88;84.13;74747.53;5039760;28;20016;-82
2022/09/13 03:35:38;;;;;;;7.75;5.57;;;;;;;-148.88;84.20;74741.44;5038590;28;20028;-81
2022/09/13 03:38:07;;;;;;;7.85;5.70;;;;;;;-148.88;83.72;74741.44;5038014;28;20433;-82
2022/09/13 03:40:32;;;;;;;9.20;6.03;;;;;;;-148.88;83.13;74735.34;5055876;28;20104;-82
2022/09/13 03:43:07;;;;;;;8.90;6.40;;;;;;;-148.88;82.55;74737.38;5042132;28;20104;-82
2022/09/13 03:45:40;;;;;;;9.18;6.50;;;;;;;-148.88;81.84;74741.44;5060319;28;20301;-82
2022/09/13 03:48:06;;;;;;;9.48;6.53;;;;;;;-148.88;81.87;74733.31;5042404;28;20024;-83
2022/09/13 03:50:33;;;;;;;9.23;6.57;;;;;;;-148.88;82.04;74731.28;5059342;28;20035;-81
2022/09/13 03:53:04;;;;;;;9.38;6.78;;;;;;;-148.88;81.39;74725.19;5058029;28;20035;-82
2022/09/13 03:55:33;;;;;;;10.48;6.82;;;;;;;-148.88;81.43;74725.19;5040537;28;20021;-82
2022/09/13 03:57:58;;;;;;;10.75;6.97;;;;;;;-148.88;80.46;74725.19;5058247;28;20025;-82
2022/09/13 04:00:23;;;;;;;10.15;6.70;;;;;;;-148.88;80.62;74721.13;5058073;28;20023;-82
2022/09/13 04:02:49;;;;;;;9.90;7.13;;;;;;;-148.88;80.67;74729.25;5058069;28;20509;-82
2022/09/13 04:05:15;;;;;;;8.13;6.25;;;;;;;-148.88;80.33;74733.31;5039632;28;20025;-83
2022/09/13 04:07:40;;;;;;;9.00;6.80;;;;;;;-148.88;80.31;74729.25;5058389;28;20420;-83
2022/09/13 04:10:06;;;;;;;11.50;7.15;;;;;;;-148.88;80.13;74725.19;5057464;28;20017;-82
2022/09/13 04:12:31;;;;;;;10.32;6.55;;;;;;;-148.88;80.75;74733.31;5038499;28;20025;-82
2022/09/13 04:14:57;;;;;;;9.27;7.25;;;;;;;-148.88;80.13;74733.31;5055910;28;20025;-80
2022/09/13 04:17:22;;;;;;;12.70;7.40;;;;;;;-148.88;79.28;74721.13;5055590;28;20143;-81
2022/09/13 04:19:47;;;;;;;11.00;7.15;;;;;;;-148.88;80.68;74727.22;5058811;28;20028;-82
2022/09/13 04:22:13;;;;;;;9.77;7.18;;;;;;;-148.88;81.41;74721.13;5058734;28;20037;-83
2022/09/13 04:24:38;;;;;;;10.70;7.13;;;;;;;-148.88;82.11;74721.13;5058231;28;20021;-82
2022/09/13 04:27:04;;;;;;;11.52;8.07;;;;;;;-148.88;83.10;74729.25;5058407;28;20025;-83
2022/09/13 04:29:31;;;;;;;12.50;8.35;;;;;;;-148.88;83.57;74729.25;5057465;28;20039;-81
2022/09/13 04:31:57;;;;;;;11.15;7.25;;;;;;;-148.88;83.48;74717.06;5038264;28;20024;-81
2022/09/13 04:34:23;;;;;;;9.07;6.72;;;;;;;-148.88;83.28;74737.38;5056303;28;20030;-81
2022/09/13 04:36:50;;;;;;;10.20;7.22;;;;;;;-148.88;83.30;74735.34;5056738;28;20024;-81
2022/09/13 04:39:15;;;;;;;12.70;6.97;;;;;;;-148.88;83.35;74745.50;5038530;28;20025;-80
2022/09/13 04:41:44;;;;;;;11.63;6.88;;;;;;;-148.88;83.41;74737.38;5038221;28;20045;-80
2022/09/13 04:44:10;;;;;;;9.43;6.10;;;;;;;-148.88;83.20;74741.44;5056260;28;20033;-81
2022/09/13 04:46:35;;;;;;;10.63;6.78;;;;;;;-148.88;82.51;74737.38;5055502;28;20104;-80
2022/09/13 04:49:00;;;;;;;11.23;6.68;;;;;;;-148.88;83.18;74729.25;5037036;28;20067;-81
2022/09/13 04:51:26;;;;;;;9.18;6.57;;;;;;;-148.88;82.77;74733.31;5054733;28;20021;-80
2022/09/13 04:53:56;;;;;;;8.73;6.25;;;;;;;-148.88;82.80;74737.38;5054579;28;20028;-80
2022/09/13 04:56:22;;;;;;;11.00;6.47;;;;;;;-148.88;82.96;74739.41;5037854;28;20021;-80
2022/09/13 04:58:49;;;;;;;8.90;6.25;;;;;;;-148.88;82.99;74731.28;5057109;28;20025;-80
2022/09/13 05:01:15;;;;;;;8.90;5.93;;;;;;;-148.88;82.40;74729.25;5039740;28;20108;-80
2022/09/13 05:03:40;;;;;;;9.00;6.00;;;;;;;-148.88;83.00;74733.31;5057793;28;20132;-81
2022/09/13 05:06:11;;;;;;;11.80;6.80;;;;;;;-148.88;82.47;74731.28;5039989;28;20025;-80
2022/09/13 05:08:37;;;;;;;9.48;6.22;;;;;;;-148.88;82.96;74733.31;5056671;28;20107;-81
2022/09/13 05:11:03;;;;;;;10.45;6.28;;;;;;;-148.88;82.26;74733.31;5056290;28;20028;-81
2022/09/13 05:13:29;;;;;;;10.35;6.18;;;;;;;-148.88;82.32;74725.19;5055974;28;20117;-78
2022/09/13 05:15:56;;;;;;;10.32;7.00;;;;;;;-148.88;81.83;74725.19;5037048;28;20027;-80
2022/09/13 05:18:24;;;;;;;9.18;6.25;;;;;;;-148.88;82.30;74725.19;5038362;28;20029;-80
2022/09/13 05:20:53;;;;;;;9.32;6.43;;;;;;;-148.88;81.85;74727.22;5056240;28;20071;-80
2022/09/13 05:23:18;;;;;;;8.27;6.03;;;;;;;-148.88;82.15;74725.19;5037201;28;20029;-80
2022/09/13 05:25:43;;;;;;;10.10;6.65;;;;;;;-148.88;82.17;74723.16;5054430;28;20356;-80
2022/09/13 05:28:09;;;;;;;9.82;6.43;;;;;;;-148.88;81.67;74725.19;5053987;28;20070;-80
2022/09/13 05:30:34;;;;;;;8.40;6.45;;;;;;;-148.88;82.81;74710.97;5053721;28;20024;-79
2022/09/13 05:32:59;;;;;;;9.82;6.32;;;;;;;-148.88;81.39;74708.94;5038427;28;20481;-81
2022/09/13 05:35:25;;;;;;;8.15;6.03;;;;;;;-148.88;81.21;74710.97;5039205;28;20033;-81
2022/09/13 05:37:50;;;;;;;9.75;6.55;;;;;;;-148.88;80.87;74704.88;5057424;28;20029;-81
2022/09/13 05:40:15;;;;;;;8.50;5.68;;;;;;;-148.88;81.13;74704.88;5039034;28;20060;-81
2022/09/13 05:42:41;;;;;;;10.48;6.35;;;;;;;-148.88;80.92;74704.88;5056651;28;20490;-81
2022/09/13 05:45:07;;;;;;;11.13;7.13;;;;;;;-148.88;80.92;74692.72;5038775;28;20064;-80
2022/09/13 05:47:32;;;;;;;11.48;6.43;;;;;;;-148.88;80.33;74684.59;5055359;28;20100;-79
2022/09/13 05:49:57;;;;;;;8.52;6.57;;;;;;;-148.88;80.41;74684.59;5054917;28;20056;-80
2022/09/13 05:52:23;;;;;;;10.30;7.00;;;;;;;-148.88;80.35;74686.63;5036589;28;20028;-80
2022/09/13 05:54:49;;;;;;;13.00;7.00;;;;;;;-148.88;80.20;74684.59;5037026;28;20057;-80
2022/09/13 05:57:14;;;;;;;10.43;6.22;;;;;;;-148.88;79.91;74680.53;5037390;28;20025;-80
2022/09/13 05:59:40;;;;;;;11.45;7.10;;;;;;;-148.88;80.60;74668.34;5036967;28;20025;-81
2022/09/13 06:02:05;;;;;;;11.40;7.03;;;;;;;-148.88;80.42;74666.31;5038239;28;20025;-80
2022/09/13 06:04:30;;;;;;;10.75;7.25;;;;;;;-148.88;79.90;74664.28;5058435;28;20029;-80
2022/09/13 06:06:56;;;;;;;9.45;6.80;;;;;;;-148.88;80.17;74668.34;5055104;28;20116;-79
2022/09/13 06:09:21;;;;;;;10.93;6.88;;;;;;;-148.88;80.16;74660.22;5039546;28;20021;-80
2022/09/13 06:11:46;;;;;;;11.25;7.15;;;;;;;-148.88;80.13;74664.28;5044422;28;20417;-81
2022/09/13 06:14:12;;;;;;;11.52;7.32;;;;;;;-148.88;79.46;74656.16;5042127;28;20031;-81
2022/09/13 06:16:37;;;;;;;10.95;7.20;;;;;;;-148.88;79.25;74656.16;5060812;28;20025;-81
2022/09/13 06:19:02;;;;;;;9.38;7.10;;;;;;;-148.88;79.46;74648.03;5041925;28;20028;-81
2022/09/13 06:21:28;;;;;;;13.20;7.72;;;;;;;-148.88;78.79;74650.06;5044155;28;20097;-80
2022/09/13 06:23:53;;;;;;;8.90;6.90;;;;;;;-148.88;79.07;74656.16;5059304;28;20056;-81
2022/09/13 06:26:23;;;;;;;11.05;7.55;;;;;;;-148.88;78.65;74650.06;5058963;28;20025;-80
2022/09/13 06:28:51;;;;;;;11.82;7.82;;;;;;;-148.88;78.68;74639.91;5040604;28;20025;-80
2022/09/13 06:31:18;;;;;;;12.32;7.53;;;;;;;-148.88;78.61;74629.75;5058878;28;20025;-80
2022/09/13 06:33:44;;;;;;;11.80;8.18;;;;;;;-148.88;78.50;74627.72;5057944;28;20096;-80
2022/09/13 06:36:16;;;;;;;10.80;7.43;;;;;;;-148.88;78.84;74621.63;5057620;28;20067;-80
2022/09/13 06:38:43;;;;;;;15.27;7.50;;;;;;;-148.88;78.84;74619.59;5039338;28;20061;-80
2022/09/13 06:41:09;;;;;;;11.20;7.60;;;;;;;-148.88;79.61;74621.63;5038686;28;20051;-80
2022/09/13 06:43:36;;;;;;;10.48;7.15;;;;;;;-148.88;79.63;74619.59;5062645;28;20040;-81
2022/09/13 06:46:05;;;;;;;9.98;7.28;;;;;;;-148.88;79.24;74607.41;5056653;28;20421;-80
2022/09/13 06:48:35;;;;;;;11.30;6.88;;;;;;;-148.88;79.76;74611.47;5041522;28;20105;-80
2022/09/13 06:51:03;;;;;;;11.85;7.53;;;;;;;-148.88;79.45;74611.47;5042832;28;20021;-81
2022/09/13 06:53:29;;;;;;;10.63;7.03;;;;;;;-148.88;79.39;74607.41;5042211;28;20033;-81
2022/09/13 06:56:05;;;;;;;9.90;7.43;;;;;;;-148.88;79.41;74607.41;5060139;28;20052;-82
2022/09/13 06:58:32;;;;;;;12.77;7.88;;;;;;;-148.88;79.14;74615.53;5042223;28;20024;-80
2022/09/13 07:01:28;;;;;;;11.52;7.53;;;;;;;-148.88;78.99;74615.53;5059834;28;20031;-80
2022/09/13 07:03:57;;;;;;;12.43;8.32;;;;;;;-148.88;79.17;74617.56;5055371;28;20048;-81
2022/09/13 07:06:28;;;;;;;11.57;8.23;;;;;;;-148.88;79.28;74607.41;5057906;28;20035;-81
2022/09/13 07:08:55;;;;;;;11.05;7.50;;;;;;;-148.88;79.14;74617.56;5057581;28;20028;-81
2022/09/13 07:11:23;;;;;;;12.45;8.40;;;;;;;-148.88;79.39;74599.28;5058535;28;20094;-81
2022/09/13 07:13:50;;;;;;;12.80;7.78;;;;;;;-148.88;79.16;74601.31;5057019;28;20123;-80
2022/09/13 07:16:16;;;;;;;10.30;7.65;;;;;;;-148.88;79.35;74601.31;5057008;28;20037;-80
2022/09/13 07:18:41;;;;;;;10.65;7.82;;;;;;;-148.88;79.04;74609.44;5039010;28;20025;-79
2022/09/13 07:21:09;;;;;;;13.70;8.05;;;;;;;-148.88;78.89;74601.31;5056277;28;20025;-80
2022/09/13 07:23:37;;;;;;;10.48;7.53;;;;;;;-148.88;78.91;74595.25;5038241;28;20074;-79
2022/09/13 07:26:04;;;;;;;12.65;8.10;;;;;;;-148.88;78.79;74595.25;5058346;28;20501;-80
2022/09/13 07:28:41;;;;;;;11.55;8.13;;;;;;;-148.88;79.31;74589.16;5059345;28;20021;-81
2022/09/13 07:31:21;;;;;;;12.68;8.50;;;;;;;-148.88;79.01;74591.19;5041894;28;20110;-81
2022/09/13 07:33:48;;;;;;;11.40;7.53;;;;;;;-148.88;79.04;74587.13;5041892;28;20393;-81
2022/09/13 07:36:13;;;;;;;13.00;8.38;;;;;;;-148.88;79.51;74581.03;5060068;28;20032;-81
2022/09/13 07:38:41;;;;;;;14.13;8.10;;;;;;;-148.88;78.65;74583.06;5040887;28;20029;-81
2022/09/13 07:41:13;;;;;;;12.88;8.27;;;;;;;-148.88;79.07;74581.03;5041185;28;20025;-81
2022/09/13 07:43:38;;;;;;;13.55;8.68;;;;;;;-148.88;78.06;74579.00;5057544;28;20113;-80
2022/09/13 07:46:06;;;;;;;13.25;8.68;;;;;;;-148.88;78.60;74572.91;5057643;28;20052;-80
2022/09/13 07:48:33;;;;;;;12.55;8.70;;;;;;;-148.88;78.58;74562.75;5039074;28;20024;-81
2022/09/13 07:51:00;;;;;;;15.23;8.55;;;;;;;-148.88;78.27;74550.56;5039110;28;20021;-80
2022/09/13 07:53:25;;;;;;;13.40;8.95;;;;;;;-148.88;78.39;74542.44;5056634;28;20029;-80
2022/09/13 07:55:51;;;;;;;13.73;9.13;;;;;;;-148.88;78.54;74534.31;5037766;28;20032;-80
2022/09/13 07:58:17;;;;;;;13.90;8.63;;;;;;;-148.88;78.21;74536.34;5056161;28;20474;-80
2022/09/13 08:00:43;;;;;;;15.68;9.52;;;;;;;-148.88;77.62;74532.28;5037658;28;20043;-78
2022/09/13 08:03:09;;;;;;;12.50;8.82;;;;;;;-148.88;77.61;74526.19;5039454;28;20025;-81
2022/09/13 08:05:41;;;;;;;13.32;8.48;;;;;;;-148.88;77.36;74524.16;5041329;28;20116;-81
2022/09/13 08:08:06;;;;;;;13.50;9.50;;;;;;;-148.88;77.37;74526.19;5040526;28;20021;-81
2022/09/13 08:10:33;;;;;;;14.88;9.68;;;;;;;-148.88;77.08;74530.25;5041031;28;20028;-81
2022/09/13 08:12:59;;;;;;;13.95;9.65;;;;;;;-148.88;77.55;74530.25;5058588;28;20441;-81
2022/09/13 08:15:24;;;;;;;14.07;9.85;;;;;;;-148.88;77.63;74520.09;5041535;28;20028;-81
2022/09/13 08:17:49;;;;;;;16.95;10.50;;;;;;;-148.88;76.84;74514.00;5057907;28;20029;-81
2022/09/13 08:20:15;;;;;;;15.00;9.70;;;;;;;-148.88;77.19;74514.00;5056951;28;20021;-80
2022/09/13 08:22:40;;;;;;;14.98;9.90;;;;;;;-148.88;77.06;74514.00;5038727;28;20087;-81
2022/09/13 08:25:06;;;;;;;12.80;9.23;;;;;;;-148.88;76.69;74516.03;5056357;28;20070;-80
2022/09/13 08:27:33;;;;;;;12.68;9.00;;;;;;;-148.88;77.01;74497.78;5057223;28;20028;-81
2022/09/13 08:29:58;;;;;;;15.32;9.60;;;;;;;-148.88;77.56;74507.91;5056514;28;20398;-81
2022/09/13 08:32:24;;;;;;;13.93;9.90;;;;;;;-148.88;77.32;74501.81;5038534;28;20467;-80
2022/09/13 08:34:49;;;;;;;18.27;11.95;;;;;;;-148.88;77.26;74503.84;5055704;28;20021;-80
2022/09/13 08:37:14;;;;;;;18.30;10.85;;;;;;;-148.88;77.38;74497.78;5055455;28;20028;-80
2022/09/13 08:39:39;;;;;;;14.98;10.82;;;;;;;-148.88;77.52;74493.72;5055507;28;20040;-81
2022/09/13 08:42:18;;;;;;;17.02;11.70;;;;;;;-148.88;77.30;74489.66;5057242;28;20028;-81
2022/09/13 08:44:49;;;;;;;16.48;11.27;;;;;;;-148.88;77.16;74489.66;5039661;28;20035;-80
2022/09/13 08:47:36;;;;;;;17.80;11.50;;;;;;;-148.88;77.36;74477.47;5057641;28;20056;-80
2022/09/13 08:50:17;;;;;;;17.55;10.73;;;;;;;-148.88;77.19;74477.47;5057114;28;20462;-81
2022/09/13 08:53:02;;;;;;;16.27;11.52;;;;;;;-148.88;77.01;74481.53;5057598;28;20027;-81
2022/09/13 08:55:56;;;;;;;21.13;11.68;;;;;;;-148.88;77.18;74465.28;5037881;28;20520;-81
2022/09/13 08:58:58;;;;;;;16.47;11.43;;;;;;;-148.88;77.96;74469.34;5038488;28;20478;-80
2022/09/13 09:02:01;;;;;;;17.90;11.88;;;;;;;-148.88;78.19;74465.28;5055459;28;20028;-80
2022/09/13 09:04:26;;;;;;;19.08;12.23;;;;;;;-148.88;78.87;74465.28;5037271;28;20055;-80
2022/09/13 09:07:04;;;;;;;15.65;11.57;;;;;;;-148.88;78.64;74467.31;5055795;28;20029;-81
2022/09/13 09:09:34;;;;;;;17.98;12.27;;;;;;;-148.88;78.37;74461.22;5055512;28;20033;-80
2022/09/13 09:12:27;;;;;;;21.67;12.20;;;;;;;-148.88;78.54;74461.22;5055063;28;20066;-79
2022/09/13 09:15:14;;;;;;;17.58;12.27;;;;;;;-148.88;78.82;74461.22;5054620;28;20025;-79
2022/09/13 09:17:44;;;;;;;20.83;11.95;;;;;;;-148.88;78.82;74449.03;5037983;28;20402;-81
2022/09/13 09:20:23;;;;;;;18.55;11.82;;;;;;;-148.88;79.76;74444.97;5057281;28;20081;-82
2022/09/13 09:22:51;;;;;;;16.17;11.07;;;;;;;-148.88;80.11;74436.84;5038858;28;20033;-80
2022/09/13 09:25:16;;;;;;;16.83;11.50;;;;;;;-148.88;79.67;74444.97;5039912;28;20021;-80
2022/09/13 09:27:41;;;;;;;17.90;11.02;;;;;;;-148.88;80.73;74449.03;5056694;28;20025;-80
2022/09/13 09:30:13;;;;;;;20.15;11.25;;;;;;;-148.88;80.42;74432.78;5056798;28;20075;-80
2022/09/13 09:32:56;;;;;;;16.77;11.40;;;;;;;-148.88;79.86;74422.63;5039082;28;20036;-80
2022/09/13 09:36:06;;;;;;;16.70;10.55;;;;;;;-148.88;79.74;74416.53;5055819;28;20099;-80
2022/09/13 09:38:40;;;;;;;16.88;10.95;;;;;;;-148.88;79.73;74420.59;4943324;29;20046;-79
2022/09/13 09:41:15;;;;;;;17.05;10.85;;;;;;;-148.88;80.47;74420.59;5032875;28;20052;-79
2022/09/13 09:43:58;;;;;;;15.63;10.85;;;;;;;-148.88;80.40;74420.59;5041746;28;20036;-80
2022/09/13 09:46:28;;;;;;;15.90;10.82;;;;;;;-148.88;80.50;74412.47;5041244;28;20016;-80
2022/09/13 09:49:00;;;;;;;16.45;10.65;;;;;;;-148.88;80.39;74404.38;5059489;28;20089;-79
2022/09/13 09:51:27;;;;;;;16.35;10.45;;;;;;;-148.88;80.41;74396.25;5040234;28;20021;-80
2022/09/13 09:54:01;;;;;;;15.48;10.48;;;;;;;-148.88;80.10;74392.19;5057769;28;20029;-79
2022/09/13 09:56:32;;;;;;;13.60;9.25;;;;;;;-148.88;80.16;74367.81;5060423;28;20029;-81
2022/09/13 09:58:58;;;;;;;16.42;10.68;;;;;;;-148.88;79.03;74343.44;5042445;28;20017;-81
2022/09/13 10:01:33;;;;;;;15.07;10.68;;;;;;;-148.88;78.97;74339.38;5042375;28;20021;-81
2022/09/13 10:04:15;;;;;;;15.68;9.98;;;;;;;-148.88;79.29;74327.19;5060900;28;20025;-80
2022/09/13 10:06:42;;;;;;;15.77;10.07;;;;;;;-148.88;78.24;74306.91;5043272;28;20025;-81
2022/09/13 10:09:21;;;;;;;16.30;9.85;;;;;;;-148.88;78.43;74302.84;5060905;28;20025;-81
2022/09/13 10:11:55;;;;;;;13.07;9.20;;;;;;;-148.88;79.48;74327.19;5042386;28;20021;-80
2022/09/13 10:14:37;;;;;;;16.60;9.45;;;;;;;-148.88;80.32;74331.25;5040967;28;20071;-81
2022/09/13 10:17:05;;;;;;;15.77;9.48;;;;;;;-148.88;79.73;74319.09;5059305;28;20029;-81
2022/09/13 10:19:31;;;;;;;14.27;9.40;;;;;;;-148.88;79.54;74298.78;5040930;28;20032;-80
2022/09/13 10:22:04;;;;;;;16.55;9.45;;;;;;;-148.88;79.54;74304.88;5058258;28;20017;-80
2022/09/13 10:24:30;;;;;;;15.02;9.43;;;;;;;-148.88;80.45;74315.03;5058501;28;20219;-81
2022/09/13 10:26:57;;;;;;;12.30;9.38;;;;;;;-148.88;79.98;74315.03;5058125;28;20454;-80
2022/09/13 10:29:23;;;;;;;13.98;9.10;;;;;;;-148.88;79.66;74294.72;5057674;28;20469;-80
2022/09/13 10:31:52;;;;;;;14.32;9.52;;;;;;;-148.88;79.22;74276.44;5058158;28;20490;-80
2022/09/13 10:34:33;;;;;;;12.40;9.50;;;;;;;-148.88;78.79;74248.00;5059666;28;20029;-81
2022/09/13 10:37:01;;;;;;;11.57;8.55;;;;;;;-148.88;79.05;74250.03;5042062;28;20116;-80
2022/09/13 10:39:29;;;;;;;12.95;8.93;;;;;;;-148.88;79.39;74266.28;5060193;28;20029;-81
2022/09/13 10:42:02;;;;;;;13.15;9.20;;;;;;;-148.88;79.23;74272.38;5059155;28;20104;-81
2022/09/13 10:44:30;;;;;;;11.45;8.65;;;;;;;-148.88;80.27;74276.44;5041479;28;20029;-81
2022/09/13 10:47:00;;;;;;;12.02;8.68;;;;;;;-148.88;80.39;74280.50;5041817;28;20381;-82
2022/09/13 10:49:34;;;;;;;13.48;8.77;;;;;;;-148.88;82.01;74315.03;5059713;28;20025;-81
2022/09/13 10:52:00;;;;;;;12.73;8.82;;;;;;;-148.88;81.85;74310.97;5041758;28;20537;-81
2022/09/13 10:54:25;;;;;;;13.45;8.60;;;;;;;-148.88;82.44;74313.00;5041082;28;20055;-82
2022/09/13 10:56:51;;;;;;;11.90;8.88;;;;;;;-148.88;83.03;74325.19;5057767;28;20148;-80
2022/09/13 10:59:24;;;;;;;15.32;9.90;;;;;;;-148.88;83.30;74335.31;5039680;28;20027;-80
2022/09/13 11:01:56;;;;;;;;;;;;;;;-148.88;83.07;74323.16;5039940;28;20028;-81
2022/09/13 11:04:46;;;;;;;14.10;8.90;;;;;;;-148.88;83.16;74310.97;5056755;28;19912;-80
2022/09/13 11:07:14;;;;;;;11.95;8.70;;;;;;;-148.88;82.34;74306.91;5038489;28;20025;-80
2022/09/13 11:09:53;;;;;;;12.38;8.10;;;;;;;-148.88;82.87;74306.91;5057435;28;20025;-80
2022/09/13 11:12:34;;;;;;;13.95;9.15;;;;;;;-148.88;83.39;74315.03;5059665;28;20021;-80
2022/09/13 11:15:25;;;;;;;10.32;8.45;;;;;;;-148.88;83.47;74317.06;5041436;28;20100;-81
2022/09/13 11:18:11;;;;;;;12.63;9.15;;;;;;;-148.88;84.93;74353.59;5058986;28;20028;-81
2022/09/13 11:21:03;;;;;;;10.52;8.45;;;;;;;-148.88;84.07;74353.59;5042717;28;20021;-81
2022/09/13 11:23:53;;;;;;;10.07;7.30;;;;;;;-148.88;84.41;74349.53;5041105;28;20064;-82
2022/09/13 11:26:40;;;;;;;8.75;4.53;;;;;;;-148.88;82.76;74333.28;5058742;28;20028;-82
2022/09/13 11:29:31;;;;;;;6.03;3.88;;;;;;;-148.88;81.64;74345.47;5057793;28;20025;-82
2022/09/13 11:32:13;;;;;;;7.32;3.97;;;;;;;-148.88;81.73;74339.38;5040091;28;20160;-80
2022/09/13 11:34:44;;;;;;;9.00;4.20;;;;;;;-148.88;81.61;74343.44;5039183;28;20032;-81
2022/09/13 11:37:46;;;;;;;8.07;4.55;;;;;;;-148.88;82.00;74349.53;5049599;22;20060;-78
2022/09/13 11:40:17;;;;;;;6.85;4.40;;;;;;;-148.88;81.67;74343.44;5036113;28;20111;-77